Time;durP1;ratioP1;P1;durP2;ratioP2;P2;SDS_P1;SDS_P2;PMS_P1;PMS_P2;Temp;Humidity;BMP_temperature;BMP_pressure;BME280_temperature;BME280_humidity;BME280_pressure;Samples;Min_cycle;Max_cycle;Signal;HPM_P1;HPM_P2
2021/01/29 00:00:26;;;;;;;7.37;3.43;;;-0.80;99.90;;;;;;4973852;28;20178;-81
2021/01/29 00:02:52;;;;;;;8.07;3.60;;;-0.80;99.90;;;;;;4974278;28;20209;-81
2021/01/29 00:05:35;;;;;;;9.23;3.43;;;-0.80;99.90;;;;;;4975938;28;20170;-82
2021/01/29 00:08:00;;;;;;;6.73;3.00;;;-0.90;99.90;;;;;;4970385;28;20174;-83
2021/01/29 00:10:28;;;;;;;11.17;3.43;;;-1.00;99.90;;;;;;4970509;28;20261;-82
2021/01/29 00:12:53;;;;;;;7.50;3.20;;;-1.00;99.90;;;;;;4966410;28;20205;-81
2021/01/29 00:15:20;;;;;;;9.40;3.50;;;-0.90;99.90;;;;;;4976965;28;20586;-82
2021/01/29 00:17:46;;;;;;;6.10;2.90;;;-1.00;99.90;;;;;;4976946;28;20185;-81
2021/01/29 00:20:16;;;;;;;8.90;3.60;;;-1.00;99.90;;;;;;4977466;28;20178;-82
2021/01/29 00:22:42;;;;;;;9.67;3.60;;;-1.00;99.90;;;;;;4977805;28;20206;-80
2021/01/29 00:25:10;;;;;;;8.33;3.40;;;-1.00;99.90;;;;;;4980579;28;20178;-80
2021/01/29 00:27:37;;;;;;;9.13;3.67;;;-1.00;99.90;;;;;;4985697;28;20181;-81
2021/01/29 00:30:05;;;;;;;7.97;3.33;;;-1.00;99.90;;;;;;4987041;28;20181;-81
2021/01/29 00:32:30;;;;;;;7.37;3.50;;;-1.00;99.90;;;;;;4988532;28;20214;-81
2021/01/29 00:34:56;;;;;;;7.17;2.87;;;-1.00;99.90;;;;;;4988975;28;20606;-82
2021/01/29 00:37:22;;;;;;;9.43;3.30;;;-1.00;99.90;;;;;;4988294;28;20210;-81
2021/01/29 00:39:47;;;;;;;10.53;3.77;;;-1.00;99.90;;;;;;4982762;28;20217;-81
2021/01/29 00:42:13;;;;;;;7.50;3.37;;;-1.00;99.90;;;;;;4983620;28;20283;-81
2021/01/29 00:44:38;;;;;;;8.97;3.70;;;-1.00;99.90;;;;;;4982316;28;20178;-82
2021/01/29 00:47:04;;;;;;;9.53;3.57;;;-1.00;99.90;;;;;;4981915;28;20186;-81
2021/01/29 00:49:29;;;;;;;8.33;3.53;;;-1.10;99.90;;;;;;4978494;28;20229;-81
2021/01/29 00:51:55;;;;;;;7.50;2.97;;;-1.10;99.90;;;;;;4979181;28;20597;-81
2021/01/29 00:54:20;;;;;;;7.73;3.57;;;-1.10;99.90;;;;;;4975800;28;20178;-81
2021/01/29 00:56:46;;;;;;;7.13;3.20;;;-1.10;99.90;;;;;;4976572;28;20181;-81
2021/01/29 00:59:11;;;;;;;8.27;3.33;;;-1.10;99.90;;;;;;4977257;28;20293;-81
2021/01/29 01:01:37;;;;;;;7.43;2.97;;;-1.00;99.90;;;;;;4977688;28;20285;-81
2021/01/29 01:04:02;;;;;;;7.70;3.40;;;-1.10;99.90;;;;;;4980870;28;20234;-82
2021/01/29 01:06:28;;;;;;;8.53;3.33;;;-1.00;99.90;;;;;;4985224;28;20193;-81
2021/01/29 01:08:53;;;;;;;9.40;3.17;;;-1.00;99.90;;;;;;4985884;28;20205;-81
2021/01/29 01:11:19;;;;;;;9.97;3.30;;;-1.10;99.90;;;;;;4983078;28;20208;-83
2021/01/29 01:13:44;;;;;;;9.00;2.97;;;-1.20;99.90;;;;;;4981209;28;20261;-81
2021/01/29 01:16:10;;;;;;;8.13;2.73;;;-1.20;99.90;;;;;;4984014;28;20184;-80
2021/01/29 01:18:36;;;;;;;9.00;2.70;;;-1.20;99.90;;;;;;4977548;28;20245;-81
2021/01/29 01:21:02;;;;;;;7.83;2.67;;;-1.10;99.90;;;;;;4976024;28;20630;-81
2021/01/29 01:23:27;;;;;;;7.73;3.03;;;-1.10;99.90;;;;;;4977000;28;20217;-81
2021/01/29 01:25:53;;;;;;;6.37;2.53;;;-1.10;99.90;;;;;;4980458;28;20185;-81
2021/01/29 01:28:19;;;;;;;6.27;2.40;;;-1.10;99.90;;;;;;4980768;28;20208;-81
2021/01/29 01:30:44;;;;;;;7.73;2.67;;;-1.00;99.90;;;;;;4978318;28;20185;-80
2021/01/29 01:33:10;;;;;;;7.47;2.50;;;-1.00;99.90;;;;;;4976945;28;20712;-80
2021/01/29 01:35:36;;;;;;;7.40;2.60;;;-0.90;99.90;;;;;;4977159;28;20185;-81
2021/01/29 01:38:03;;;;;;;5.23;2.03;;;-0.90;99.90;;;;;;4976617;28;22060;-81
2021/01/29 01:40:41;;;;;;;9.27;2.30;;;-1.00;99.90;;;;;;4977146;28;20178;-80
2021/01/29 01:43:07;;;;;;;6.80;2.20;;;-0.90;99.90;;;;;;4977822;28;20236;-80
2021/01/29 01:45:32;;;;;;;7.80;2.50;;;-0.90;99.90;;;;;;4977245;28;20182;-80
2021/01/29 01:48:12;;;;;;;9.63;2.30;;;-0.90;99.90;;;;;;4976140;28;20240;-81
2021/01/29 01:50:41;;;;;;;4.47;1.50;;;-0.90;99.90;;;;;;4976660;28;20206;-81
2021/01/29 01:53:31;;;;;;;7.63;2.10;;;-0.90;99.90;;;;;;4977017;28;20206;-81
2021/01/29 01:56:25;;;;;;;6.03;1.80;;;-1.00;99.90;;;;;;4976774;28;20183;-80
2021/01/29 01:58:59;;;;;;;6.67;1.53;;;-1.00;99.90;;;;;;4956561;28;20221;-81
2021/01/29 02:01:25;;;;;;;3.43;1.07;;;-1.00;99.90;;;;;;4977057;28;20193;-81
2021/01/29 02:03:54;;;;;;;3.23;1.33;;;-1.00;99.90;;;;;;4976817;28;20182;-81
2021/01/29 02:06:21;;;;;;;3.77;1.27;;;-1.00;99.90;;;;;;4978005;28;20182;-80
2021/01/29 02:08:48;;;;;;;6.77;1.60;;;-0.90;99.90;;;;;;4975659;28;20182;-81
2021/01/29 02:11:17;;;;;;;4.47;1.40;;;-0.90;99.90;;;;;;4975899;28;20735;-80
2021/01/29 02:13:43;;;;;;;5.63;1.40;;;-0.80;99.90;;;;;;4989573;28;20185;-82
2021/01/29 02:16:25;;;;;;;6.17;1.23;;;-0.90;99.90;;;;;;4993211;28;20186;-81
2021/01/29 02:19:22;;;;;;;3.63;1.43;;;-1.00;99.90;;;;;;4992397;28;20209;-81
2021/01/29 02:22:24;;;;;;;6.03;1.40;;;-0.90;99.90;;;;;;5009150;28;20201;-81
2021/01/29 02:25:16;;;;;;;7.30;1.37;;;-0.90;99.90;;;;;;5004681;28;20276;-81
2021/01/29 02:27:53;;;;;;;8.13;1.43;;;-0.90;99.90;;;;;;5000016;28;20463;-81
2021/01/29 02:30:54;;;;;;;3.53;1.07;;;-0.90;99.90;;;;;;4986331;28;20185;-81
2021/01/29 02:34:13;;;;;;;6.27;1.10;;;-0.80;99.90;;;;;;4971457;28;20213;-80
2021/01/29 02:37:00;;;;;;;9.13;1.07;;;-0.80;99.90;;;;;;4985774;28;20639;-82
2021/01/29 02:40:04;;;;;;;4.57;0.93;;;-0.80;99.90;;;;;;4986655;28;20212;-81
2021/01/29 02:42:46;;;;;;;5.03;1.77;;;-0.80;99.90;;;;;;5001123;28;20215;-82
2021/01/29 02:45:25;;;;;;;4.00;1.03;;;-0.80;99.90;;;;;;4984494;28;20181;-82
2021/01/29 02:48:06;;;;;;;4.90;1.37;;;-0.80;99.90;;;;;;4986176;28;20181;-81
2021/01/29 02:50:58;;;;;;;4.80;1.37;;;-0.70;99.90;;;;;;4985805;28;20192;-81
2021/01/29 02:53:38;;;;;;;2.77;0.87;;;-0.80;99.90;;;;;;4979931;28;20574;-81
2021/01/29 02:56:25;;;;;;;2.50;1.00;;;-0.70;99.90;;;;;;4998400;28;20564;-81
2021/01/29 02:59:11;;;;;;;2.13;0.90;;;-0.70;99.90;;;;;;4981605;28;20213;-81
2021/01/29 03:01:50;;;;;;;4.53;1.30;;;-0.70;99.90;;;;;;4986939;28;20197;-81
2021/01/29 03:04:24;;;;;;;2.63;1.00;;;-0.70;99.90;;;;;;4988209;28;20205;-81
2021/01/29 03:06:59;;;;;;;5.87;1.23;;;-0.70;99.90;;;;;;4981924;28;20177;-81
2021/01/29 03:09:34;;;;;;;2.70;1.00;;;-0.70;99.90;;;;;;4983717;28;20192;-81
2021/01/29 03:12:09;;;;;;;3.53;0.90;;;-0.70;99.90;;;;;;4985199;28;20208;-81
2021/01/29 03:14:57;;;;;;;5.00;1.13;;;-0.60;99.90;;;;;;4986917;28;20181;-81
2021/01/29 03:17:46;;;;;;;3.50;0.80;;;-0.60;99.90;;;;;;4984522;28;20216;-81
2021/01/29 03:20:30;;;;;;;4.57;1.00;;;-0.60;99.90;;;;;;4984042;28;20195;-80
2021/01/29 03:23:01;;;;;;;8.03;1.23;;;-0.60;99.90;;;;;;5000639;28;20679;-81
2021/01/29 03:25:36;;;;;;;5.37;0.87;;;-0.60;99.90;;;;;;4986370;28;20204;-81
2021/01/29 03:28:08;;;;;;;5.40;0.70;;;-0.50;99.90;;;;;;4989389;28;20177;-81
2021/01/29 03:30:37;;;;;;;2.73;0.83;;;-0.50;99.90;;;;;;4988265;28;20174;-81
2021/01/29 03:33:06;;;;;;;3.63;0.83;;;-0.50;99.90;;;;;;4988755;28;20216;-81
2021/01/29 03:35:43;;;;;;;3.87;1.10;;;-0.40;99.90;;;;;;4988378;28;20181;-82
2021/01/29 03:38:16;;;;;;;2.07;0.70;;;-0.50;99.90;;;;;;4986948;28;20719;-81
2021/01/29 03:40:47;;;;;;;5.03;0.80;;;-0.50;99.90;;;;;;4987722;28;20264;-82
2021/01/29 03:43:32;;;;;;;6.33;1.27;;;-0.50;99.90;;;;;;4986454;28;20198;-81
2021/01/29 03:46:27;;;;;;;4.00;0.80;;;-0.50;99.90;;;;;;4985600;28;20177;-81
2021/01/29 03:49:03;;;;;;;6.73;0.77;;;-0.50;99.90;;;;;;4974471;28;20198;-81
2021/01/29 03:51:47;;;;;;;2.77;0.70;;;-0.60;99.90;;;;;;4985690;28;20228;-82
2021/01/29 03:54:21;;;;;;;7.07;0.70;;;-0.50;99.90;;;;;;5002250;28;20197;-81
2021/01/29 03:57:02;;;;;;;3.20;0.83;;;-0.50;99.90;;;;;;4989137;28;20182;-82
2021/01/29 03:59:42;;;;;;;1.23;0.50;;;-0.50;99.90;;;;;;4989378;28;20213;-81
2021/01/29 04:02:27;;;;;;;3.40;0.73;;;-0.50;99.90;;;;;;4986612;28;20220;-81
2021/01/29 04:05:05;;;;;;;4.67;0.83;;;-0.50;99.90;;;;;;4987654;28;20178;-82
2021/01/29 04:07:53;;;;;;;6.10;0.97;;;-0.50;99.90;;;;;;4989177;28;20207;-82
2021/01/29 04:10:22;;;;;;;6.47;0.93;;;-0.50;99.90;;;;;;4988441;28;20531;-80
2021/01/29 04:13:08;;;;;;;3.97;0.90;;;-0.50;99.90;;;;;;4991847;28;20198;-80
2021/01/29 04:15:53;;;;;;;4.63;0.80;;;-0.50;99.90;;;;;;5000523;28;20178;-82
2021/01/29 04:18:25;;;;;;;3.63;1.00;;;-0.50;99.90;;;;;;5000774;28;20201;-82
2021/01/29 04:21:16;;;;;;;3.37;0.60;;;-0.50;99.90;;;;;;5000718;28;20177;-82
2021/01/29 04:23:57;;;;;;;4.10;0.90;;;-0.50;99.90;;;;;;4977339;28;20161;-82
2021/01/29 04:26:27;;;;;;;4.13;1.00;;;-0.40;99.90;;;;;;5000434;28;20189;-82
2021/01/29 04:28:57;;;;;;;6.53;1.20;;;-0.40;99.90;;;;;;4999615;28;20209;-82
2021/01/29 04:31:24;;;;;;;6.67;1.13;;;-0.40;99.90;;;;;;5000019;28;20224;-82
2021/01/29 04:33:56;;;;;;;4.63;0.87;;;-0.40;99.90;;;;;;4999904;28;20197;-80
2021/01/29 04:36:28;;;;;;;3.57;0.80;;;-0.40;99.90;;;;;;4996851;28;20186;-81
2021/01/29 04:39:11;;;;;;;3.63;0.70;;;-0.50;99.90;;;;;;4997759;28;20189;-82
2021/01/29 04:42:02;;;;;;;3.27;0.60;;;-0.50;99.90;;;;;;4998655;28;20201;-82
2021/01/29 04:44:44;;;;;;;4.47;0.77;;;-0.50;99.90;;;;;;4993187;28;20556;-81
2021/01/29 04:47:37;;;;;;;1.90;0.70;;;-0.50;99.90;;;;;;4990894;28;20178;-81
2021/01/29 04:50:27;;;;;;;5.20;0.87;;;-0.40;99.90;;;;;;4991445;28;20193;-81
2021/01/29 04:53:35;;;;;;;6.00;0.83;;;-0.40;99.90;;;;;;4991714;28;20260;-82
2021/01/29 04:56:20;;;;;;;3.80;1.03;;;-0.40;99.90;;;;;;4990544;28;20719;-82
2021/01/29 04:58:56;;;;;;;6.23;1.00;;;-0.30;99.90;;;;;;4989088;28;20209;-82
2021/01/29 05:02:06;;;;;;;4.57;1.00;;;-0.30;99.90;;;;;;4989445;28;20201;-82
2021/01/29 05:05:02;;;;;;;3.80;0.97;;;-0.30;99.90;;;;;;4996539;28;20220;-81
2021/01/29 05:07:52;;;;;;;6.20;1.20;;;-0.30;99.90;;;;;;4998888;28;20173;-83
2021/01/29 05:10:37;;;;;;;3.23;0.80;;;-0.30;99.90;;;;;;4999969;28;20166;-82
2021/01/29 05:13:36;;;;;;;6.10;1.80;;;-0.30;99.90;;;;;;4998001;28;20205;-82
2021/01/29 05:16:29;;;;;;;4.77;1.20;;;-0.30;99.90;;;;;;4997588;28;20165;-82
2021/01/29 05:19:04;;;;;;;6.90;1.47;;;-0.30;99.90;;;;;;4997945;28;20237;-83
2021/01/29 05:21:42;;;;;;;7.47;1.63;;;-0.30;99.90;;;;;;4995859;28;20201;-81
2021/01/29 05:24:11;;;;;;;5.97;1.60;;;-0.30;99.90;;;;;;4996623;28;20180;-83
2021/01/29 05:27:10;;;;;;;6.20;1.33;;;-0.30;99.90;;;;;;4993477;28;20241;-81
2021/01/29 05:29:50;;;;;;;5.20;1.73;;;-0.20;99.90;;;;;;4994450;28;20178;-82
2021/01/29 05:32:53;;;;;;;6.27;1.73;;;-0.20;99.90;;;;;;4993874;28;20232;-82
2021/01/29 05:35:47;;;;;;;6.43;1.10;;;-0.20;99.90;;;;;;4994016;28;20206;-82
2021/01/29 05:38:51;;;;;;;3.30;0.80;;;-0.20;99.90;;;;;;4985946;28;20205;-82
2021/01/29 05:42:10;;;;;;;3.33;0.90;;;-0.20;99.90;;;;;;4963621;28;20287;-82
2021/01/29 05:44:45;;;;;;;5.00;0.77;;;-0.20;99.90;;;;;;4942470;29;20202;-82
2021/01/29 05:47:24;;;;;;;4.23;0.93;;;-0.20;99.90;;;;;;4989263;28;20217;-84
2021/01/29 05:50:11;;;;;;;3.50;0.87;;;-0.30;99.90;;;;;;4974583;28;20174;-82
2021/01/29 05:53:12;;;;;;;2.23;0.60;;;-0.30;99.90;;;;;;4972967;28;20198;-82
2021/01/29 05:55:38;;;;;;;4.03;0.83;;;-0.30;99.90;;;;;;4980171;28;20169;-83
2021/01/29 05:58:49;;;;;;;4.97;0.80;;;-0.20;99.90;;;;;;4981975;28;20193;-84
2021/01/29 06:18:10;;;;;;;3.00;0.80;;;-0.20;99.90;;;;;;5238126;23;20226;-82
2021/01/29 06:21:20;;;;;;;2.63;0.63;;;-0.30;99.90;;;;;;5191105;23;20213;-83
2021/01/29 06:24:24;;;;;;;4.10;0.70;;;-0.20;99.90;;;;;;4986234;28;20190;-83
2021/01/29 07:08:59;;;;;;;4.50;0.80;;;-0.20;99.90;;;;;;5005786;28;20225;-82
2021/01/29 07:12:00;;;;;;;4.67;0.70;;;-0.30;99.90;;;;;;4989826;28;20660;-83
2021/01/29 07:14:55;;;;;;;6.03;0.73;;;-0.20;99.90;;;;;;4967095;28;20213;-82
2021/01/29 07:17:35;;;;;;;1.70;0.70;;;-0.20;99.90;;;;;;5002302;28;20197;-83
2021/01/29 07:20:32;;;;;;;3.67;1.10;;;-0.20;99.90;;;;;;4990324;28;20201;-83
2021/01/29 07:23:07;;;;;;;3.63;0.90;;;-0.20;99.90;;;;;;5000301;28;20212;-82
2021/01/29 07:25:39;;;;;;;3.53;1.00;;;-0.20;99.90;;;;;;4988972;28;20180;-82
2021/01/29 07:28:46;;;;;;;4.67;1.00;;;-0.20;99.90;;;;;;4991718;28;20182;-82
2021/01/29 07:31:22;;;;;;;5.37;0.90;;;-0.20;99.90;;;;;;4986145;28;20178;-82
2021/01/29 07:33:55;;;;;;;5.00;1.13;;;-0.10;99.90;;;;;;4971515;28;20170;-82
2021/01/29 07:36:40;;;;;;;3.57;0.57;;;-0.20;99.90;;;;;;4991876;28;20185;-83
2021/01/29 07:39:47;;;;;;;3.10;1.00;;;-0.10;99.90;;;;;;5003316;28;20281;-82
2021/01/29 07:42:55;;;;;;;4.17;1.37;;;-0.20;99.90;;;;;;4995313;28;20280;-82
2021/01/29 07:45:30;;;;;;;3.07;0.73;;;-0.10;99.90;;;;;;4987239;28;20166;-82
2021/01/29 07:48:17;;;;;;;5.00;1.40;;;-0.10;99.90;;;;;;4995938;28;20201;-82
2021/01/29 07:50:57;;;;;;;4.60;1.30;;;0.00;99.90;;;;;;5022131;28;20193;-83
2021/01/29 07:53:40;;;;;;;8.27;2.47;;;-0.10;99.90;;;;;;4996857;28;20193;-83
2021/01/29 08:13:15;;;;;;;6.63;2.00;;;0.10;99.90;;;;;;5366315;23;20236;-82
2021/01/29 08:15:55;;;;;;;6.03;1.80;;;0.10;99.90;;;;;;4994984;28;20651;-83
2021/01/29 08:50:37;;;;;;;1.57;0.50;;;0.00;99.90;;;;;;5553129;23;20220;-82
2021/01/29 08:53:25;;;;;;;4.00;0.70;;;0.00;99.90;;;;;;4994513;28;20237;-83
2021/01/29 09:29:16;;;;;;;3.27;0.60;;;0.20;99.90;;;;;;4997542;28;20209;-83
2021/01/29 09:42:14;;;;;;;3.90;0.87;;;0.30;99.90;;;;;;5700255;23;20229;-83
2021/01/29 09:44:57;;;;;;;3.43;1.17;;;0.20;99.90;;;;;;4988391;28;20177;-83
2021/01/29 09:47:28;;;;;;;2.53;1.00;;;0.20;99.90;;;;;;4990184;28;20186;-84
2021/01/29 09:50:09;;;;;;;4.43;1.07;;;0.30;99.90;;;;;;4983885;28;20328;-83
2021/01/29 09:52:59;;;;;;;2.33;0.90;;;0.40;99.90;;;;;;4993023;28;20213;-83
2021/01/29 09:55:58;;;;;;;4.63;1.30;;;0.40;99.90;;;;;;5017239;28;20196;-83
2021/01/29 10:12:24;;;;;;;5.57;0.87;;;0.50;99.90;;;;;;5785599;23;20245;-83
2021/01/29 10:15:17;;;;;;;4.00;1.00;;;0.50;99.90;;;;;;4991082;28;20222;-82
2021/01/29 10:24:23;;;;;;;4.03;0.87;;;0.50;99.90;;;;;;5018544;23;20221;-80
2021/01/29 10:27:23;;;;;;;3.10;1.10;;;0.50;99.90;;;;;;5016738;28;20184;-84
2021/01/29 11:58:16;;;;;;;3.90;0.97;;;0.60;99.90;;;;;;5031025;28;20240;-85
2021/01/29 12:00:42;;;;;;;4.40;1.20;;;0.60;99.90;;;;;;5002057;28;20190;-84
2021/01/29 12:06:37;;;;;;;2.53;0.73;;;0.60;99.90;;;;;;5015937;28;20189;-86
2021/01/29 12:09:18;;;;;;;2.40;0.80;;;0.60;99.90;;;;;;4998893;28;20189;-86
2021/01/29 12:11:47;;;;;;;2.97;0.90;;;0.60;99.90;;;;;;5002285;28;20266;-84
2021/01/29 12:14:25;;;;;;;3.20;0.80;;;0.60;99.90;;;;;;4998847;28;20182;-87
2021/01/29 12:16:58;;;;;;;3.00;0.80;;;0.60;99.90;;;;;;4999745;28;20197;-87
2021/01/29 12:19:30;;;;;;;2.57;0.90;;;0.70;99.90;;;;;;4996660;28;20213;-88
2021/01/29 12:25:06;;;;;;;4.47;0.70;;;0.70;99.90;;;;;;5188028;23;20225;-84
2021/01/29 12:27:45;;;;;;;3.17;1.27;;;0.60;99.90;;;;;;4992017;28;20174;-92
2021/01/29 12:30:28;;;;;;;3.93;0.93;;;0.60;99.90;;;;;;5009357;28;20173;-89
2021/01/29 12:33:04;;;;;;;3.17;1.13;;;0.60;99.90;;;;;;5013375;28;20220;-87
2021/01/29 12:35:42;;;;;;;3.87;1.20;;;0.70;99.90;;;;;;5044937;23;20247;-87
2021/01/29 12:38:15;;;;;;;3.83;1.37;;;0.70;99.90;;;;;;4992943;28;20262;-88
2021/01/29 12:40:50;;;;;;;4.47;1.20;;;0.70;99.90;;;;;;4995726;28;20189;-85
2021/01/29 12:43:28;;;;;;;3.00;1.07;;;0.70;99.90;;;;;;4997368;28;20220;-87
2021/01/29 12:46:07;;;;;;;4.07;1.20;;;0.70;99.90;;;;;;4999890;28;20215;-87
2021/01/29 12:48:57;;;;;;;5.27;0.93;;;0.70;99.90;;;;;;4997763;28;20161;-85
2021/01/29 12:51:35;;;;;;;2.87;0.87;;;0.60;99.90;;;;;;4996552;28;20196;-86
2021/01/29 12:54:29;;;;;;;3.37;1.00;;;0.70;99.90;;;;;;5025389;23;20280;-82
2021/01/29 12:56:58;;;;;;;4.27;1.10;;;0.60;99.90;;;;;;4989450;28;20305;-86
2021/01/29 12:59:37;;;;;;;6.23;1.27;;;0.70;99.90;;;;;;5001404;28;20209;-84
2021/01/29 13:02:53;;;;;;;2.73;0.90;;;0.60;99.90;;;;;;4995196;28;20198;-88
2021/01/29 13:05:22;;;;;;;2.70;0.60;;;0.60;99.90;;;;;;4982515;28;20157;-83
2021/01/29 13:07:54;;;;;;;2.13;0.80;;;0.60;99.90;;;;;;4989397;28;20274;-83
2021/01/29 13:10:54;;;;;;;4.20;0.80;;;0.60;99.90;;;;;;5011942;28;20193;-84
2021/01/29 13:18:49;;;;;;;3.37;0.70;;;0.70;99.90;;;;;;5382098;23;20266;-90
2021/01/29 13:21:25;;;;;;;2.53;0.60;;;0.70;99.90;;;;;;5003645;28;20216;-86
2021/01/29 13:23:55;;;;;;;5.60;1.13;;;0.80;99.90;;;;;;4992367;28;20186;-90
2021/01/29 13:26:41;;;;;;;5.37;1.00;;;0.80;99.90;;;;;;5007119;28;20252;-83
2021/01/29 13:29:31;;;;;;;4.40;1.00;;;0.70;99.90;;;;;;4986004;28;20206;-89
2021/01/29 13:35:07;;;;;;;3.43;0.80;;;0.70;99.90;;;;;;5074556;23;20217;-83
2021/01/29 13:40:15;;;;;;;3.30;1.20;;;1.10;99.90;;;;;;5758683;23;20217;-86
2021/01/29 13:45:25;;;;;;;3.73;1.23;;;1.50;99.90;;;;;;5296237;23;20233;-83
2021/01/29 13:50:40;;;;;;;3.90;0.90;;;2.10;99.90;;;;;;5359839;23;20217;-84
2021/01/29 13:53:10;;;;;;;6.13;1.10;;;2.20;99.90;;;;;;4963471;28;20241;-83
2021/01/29 13:55:53;;;;;;;3.53;1.20;;;1.90;99.90;;;;;;4982965;28;20182;-84
2021/01/29 13:59:04;;;;;;;3.50;0.83;;;2.00;99.90;;;;;;5249891;23;20288;-82
2021/01/29 15:14:37;;;;;;;7.70;2.23;;;1.30;99.90;;;;;;4994665;28;20217;-83
2021/01/29 15:17:02;;;;;;;12.27;2.10;;;1.40;99.90;;;;;;5133574;23;20778;-85
2021/01/29 15:19:33;;;;;;;6.60;1.70;;;1.40;99.90;;;;;;4980043;28;20201;-85
2021/01/29 15:22:11;;;;;;;5.33;1.40;;;1.40;99.90;;;;;;4986193;28;20205;-84
2021/01/29 15:24:40;;;;;;;4.30;1.23;;;1.40;99.90;;;;;;4986135;28;20218;-84
2021/01/29 15:27:11;;;;;;;4.93;1.70;;;1.20;99.90;;;;;;4965483;28;20256;-86
2021/01/29 15:29:47;;;;;;;4.07;1.50;;;1.20;99.90;;;;;;4963142;28;20202;-86
2021/01/29 15:32:35;;;;;;;4.60;1.50;;;1.30;99.90;;;;;;4962104;28;20209;-86
2021/01/29 15:35:07;;;;;;;6.00;1.47;;;1.10;99.90;;;;;;4976030;28;20192;-85
2021/01/29 15:37:53;;;;;;;5.47;1.70;;;1.10;99.90;;;;;;4963263;28;20194;-85
2021/01/29 15:40:41;;;;;;;5.87;1.77;;;1.10;99.90;;;;;;4952701;28;20591;-84
2021/01/29 15:43:25;;;;;;;4.27;1.53;;;1.10;99.90;;;;;;4958262;28;20202;-85
2021/01/29 15:45:54;;;;;;;6.03;2.03;;;1.20;99.90;;;;;;4976120;28;20185;-84
2021/01/29 15:48:54;;;;;;;6.37;1.80;;;1.00;99.90;;;;;;4959265;28;20562;-84
2021/01/29 15:51:43;;;;;;;8.17;2.67;;;1.10;99.90;;;;;;4966222;28;20645;-84
2021/01/29 15:54:28;;;;;;;6.53;2.07;;;1.00;99.90;;;;;;4953049;28;20194;-85
2021/01/29 15:56:57;;;;;;;8.67;2.33;;;0.90;99.90;;;;;;4979178;28;20183;-85
2021/01/29 15:59:40;;;;;;;6.90;1.97;;;1.00;99.90;;;;;;4961762;29;20622;-84
2021/01/29 16:02:09;;;;;;;4.97;2.07;;;1.00;99.90;;;;;;4961219;28;20612;-86
2021/01/29 16:04:49;;;;;;;6.67;2.63;;;1.00;99.90;;;;;;4962837;28;20222;-86
2021/01/29 16:07:16;;;;;;;7.37;2.40;;;1.00;99.90;;;;;;4959985;28;20657;-84
2021/01/29 16:09:57;;;;;;;7.73;2.47;;;1.10;99.90;;;;;;4981815;28;20186;-84
2021/01/29 16:12:35;;;;;;;10.00;2.70;;;1.10;99.90;;;;;;4986205;28;20202;-85
2021/01/29 16:15:21;;;;;;;10.33;3.53;;;1.00;99.90;;;;;;4975283;28;20174;-85
2021/01/29 16:18:02;;;;;;;6.73;3.00;;;1.00;99.90;;;;;;5002663;28;20209;-85
2021/01/29 16:20:35;;;;;;;9.97;3.03;;;0.90;99.90;;;;;;4966613;28;20678;-84
2021/01/29 16:23:07;;;;;;;8.20;3.17;;;0.90;99.90;;;;;;4967760;28;20217;-85
2021/01/29 16:25:35;;;;;;;12.47;3.60;;;1.00;99.90;;;;;;4986341;28;20571;-84
2021/01/29 16:28:06;;;;;;;9.97;3.77;;;1.00;99.90;;;;;;4980618;28;20214;-85
2021/01/29 16:30:35;;;;;;;10.60;3.63;;;1.00;99.90;;;;;;4964909;28;20182;-84
2021/01/29 16:33:25;;;;;;;8.43;3.70;;;0.90;99.90;;;;;;4994763;28;20234;-85
2021/01/29 16:35:55;;;;;;;6.77;3.00;;;0.90;99.90;;;;;;4960947;28;20215;-84
2021/01/29 16:38:34;;;;;;;7.60;3.57;;;0.90;99.90;;;;;;4984347;28;20186;-85
2021/01/29 16:41:12;;;;;;;8.67;3.53;;;1.00;99.90;;;;;;4983525;28;20183;-84
2021/01/29 16:43:38;;;;;;;8.70;4.00;;;0.80;99.90;;;;;;4965730;28;20631;-84
2021/01/29 16:46:28;;;;;;;11.43;4.23;;;0.70;99.90;;;;;;4966293;28;20191;-84
2021/01/29 16:49:21;;;;;;;7.30;3.50;;;0.50;99.90;;;;;;4978914;28;20198;-85
2021/01/29 16:51:53;;;;;;;13.20;4.27;;;0.50;99.90;;;;;;4980918;28;20685;-85
2021/01/29 16:54:25;;;;;;;7.80;3.73;;;0.40;99.90;;;;;;4969601;28;20182;-84
2021/01/29 16:56:51;;;;;;;8.07;3.77;;;0.60;99.90;;;;;;4967253;28;20278;-85
2021/01/29 16:59:21;;;;;;;8.80;3.43;;;0.50;99.90;;;;;;4966908;28;20206;-84
2021/01/29 17:01:51;;;;;;;8.40;3.20;;;0.30;99.90;;;;;;4981153;28;20360;-85
2021/01/29 17:04:19;;;;;;;6.83;2.93;;;0.30;99.90;;;;;;4982634;28;20209;-85
2021/01/29 17:06:53;;;;;;;9.10;4.10;;;0.40;99.90;;;;;;4983322;28;20182;-85
2021/01/29 17:09:30;;;;;;;8.90;3.90;;;0.30;99.90;;;;;;4988373;28;20186;-85
2021/01/29 17:11:58;;;;;;;10.27;4.10;;;0.20;99.90;;;;;;4965356;28;20309;-86
2021/01/29 17:14:27;;;;;;;9.80;4.20;;;0.40;99.90;;;;;;4983381;28;20186;-85
2021/01/29 17:16:55;;;;;;;8.50;4.10;;;0.30;99.90;;;;;;4963609;28;20201;-85
2021/01/29 17:19:29;;;;;;;11.23;4.37;;;0.30;99.90;;;;;;4973668;28;20230;-85
2021/01/29 17:22:18;;;;;;;11.70;4.97;;;0.40;99.90;;;;;;4980963;28;20695;-85
2021/01/29 17:24:47;;;;;;;9.90;4.80;;;0.50;99.90;;;;;;4960500;28;20183;-84
2021/01/29 17:27:17;;;;;;;8.50;4.10;;;0.40;99.90;;;;;;4979486;28;20179;-84
2021/01/29 17:29:55;;;;;;;10.33;4.63;;;0.30;99.90;;;;;;4973755;28;20271;-84
2021/01/29 17:32:31;;;;;;;7.63;3.47;;;0.30;99.90;;;;;;4960585;28;20205;-84
2021/01/29 17:35:16;;;;;;;9.57;4.10;;;0.30;99.90;;;;;;4960229;28;20197;-83
2021/01/29 17:37:41;;;;;;;8.47;3.73;;;0.30;99.90;;;;;;4957726;28;20262;-85
2021/01/29 17:40:32;;;;;;;7.30;3.53;;;0.40;99.90;;;;;;4977333;28;20261;-85
2021/01/29 17:42:59;;;;;;;10.53;4.70;;;0.50;99.90;;;;;;4961666;28;20202;-84
2021/01/29 17:45:32;;;;;;;11.30;5.17;;;0.60;99.90;;;;;;4956288;28;20202;-85
2021/01/29 17:48:32;;;;;;;10.83;5.40;;;0.40;99.90;;;;;;4967453;28;20199;-85
2021/01/29 17:51:02;;;;;;;10.53;4.90;;;0.40;99.90;;;;;;4983170;28;20263;-85
2021/01/29 17:53:42;;;;;;;12.73;5.23;;;0.40;99.90;;;;;;4987970;28;20167;-84
2021/01/29 17:56:15;;;;;;;8.80;4.17;;;0.40;99.90;;;;;;4973235;28;20273;-85
2021/01/29 17:58:40;;;;;;;12.57;5.13;;;0.40;99.90;;;;;;4978634;28;20222;-84
2021/01/29 18:01:10;;;;;;;10.23;4.40;;;0.40;99.90;;;;;;4966488;28;20186;-85
2021/01/29 18:03:58;;;;;;;10.43;4.37;;;0.30;99.90;;;;;;4968829;28;20174;-85
2021/01/29 18:06:31;;;;;;;10.70;5.00;;;0.20;99.90;;;;;;4967166;28;20251;-85
2021/01/29 18:09:06;;;;;;;13.57;4.87;;;0.30;99.90;;;;;;4978965;28;20190;-85
2021/01/29 18:11:33;;;;;;;10.07;4.13;;;0.30;99.90;;;;;;4989337;28;20209;-84
2021/01/29 18:13:59;;;;;;;7.93;4.03;;;0.30;99.90;;;;;;4961068;28;20186;-84
2021/01/29 18:16:33;;;;;;;7.63;3.50;;;0.30;99.90;;;;;;4964725;28;20242;-83
2021/01/29 18:18:59;;;;;;;9.27;4.50;;;0.30;99.90;;;;;;4948282;28;20202;-84
2021/01/29 18:21:34;;;;;;;9.50;3.57;;;0.30;99.90;;;;;;4959187;28;20205;-84
2021/01/29 18:24:07;;;;;;;9.20;3.73;;;0.30;99.90;;;;;;4957130;29;20234;-83
2021/01/29 18:26:34;;;;;;;10.47;4.47;;;0.30;99.90;;;;;;4965449;28;20253;-85
2021/01/29 18:29:02;;;;;;;9.87;4.10;;;0.30;99.90;;;;;;4963832;28;20190;-85
2021/01/29 18:31:33;;;;;;;9.10;4.50;;;0.30;99.90;;;;;;4968998;28;20731;-84
2021/01/29 18:34:02;;;;;;;7.70;3.97;;;0.30;99.90;;;;;;4961494;28;20182;-84
2021/01/29 18:36:31;;;;;;;9.13;4.20;;;0.30;99.90;;;;;;4957171;28;20190;-85
2021/01/29 18:38:57;;;;;;;8.33;3.90;;;0.20;99.90;;;;;;4969421;28;20212;-85
2021/01/29 18:41:25;;;;;;;10.67;4.97;;;0.30;99.90;;;;;;4988604;28;20213;-85
2021/01/29 18:43:51;;;;;;;9.30;4.80;;;0.30;99.90;;;;;;4966669;28;20259;-85
2021/01/29 18:46:17;;;;;;;10.77;5.20;;;0.30;99.90;;;;;;4974942;28;20213;-85
2021/01/29 18:48:43;;;;;;;11.43;4.63;;;0.30;99.90;;;;;;4970324;28;20224;-83
2021/01/29 18:51:09;;;;;;;11.43;5.47;;;0.30;99.90;;;;;;4955073;28;20217;-84
2021/01/29 18:53:34;;;;;;;9.53;4.87;;;0.20;99.90;;;;;;4969410;28;20749;-83
2021/01/29 18:56:00;;;;;;;12.73;5.60;;;0.20;99.90;;;;;;4955231;28;20182;-84
2021/01/29 18:58:31;;;;;;;12.53;5.90;;;0.20;99.90;;;;;;4974704;28;20182;-83
2021/01/29 19:00:58;;;;;;;11.30;5.57;;;0.10;99.90;;;;;;4919725;28;20227;-83
2021/01/29 19:03:25;;;;;;;12.67;5.70;;;0.00;99.90;;;;;;4923437;29;20271;-84
2021/01/29 19:05:56;;;;;;;13.70;5.03;;;-0.10;99.90;;;;;;4934427;29;20188;-83
2021/01/29 19:08:22;;;;;;;11.37;5.00;;;-0.20;99.90;;;;;;4930395;29;20227;-82
2021/01/29 19:10:47;;;;;;;10.50;4.60;;;-0.10;99.90;;;;;;4914499;29;20555;-83
2021/01/29 19:13:13;;;;;;;10.57;5.30;;;-0.10;99.90;;;;;;4919002;29;20538;-85
2021/01/29 19:15:39;;;;;;;10.00;5.20;;;-0.30;99.90;;;;;;4929374;29;20228;-84
2021/01/29 19:18:05;;;;;;;9.63;4.63;;;-0.30;99.90;;;;;;4923033;29;20204;-85
2021/01/29 19:20:33;;;;;;;11.23;5.37;;;-0.20;99.90;;;;;;4935111;29;20293;-84
2021/01/29 19:23:00;;;;;;;10.40;5.17;;;-0.20;99.90;;;;;;4937440;29;20208;-84
2021/01/29 19:25:27;;;;;;;12.63;5.53;;;-0.10;99.90;;;;;;4936486;29;20191;-84
2021/01/29 19:27:54;;;;;;;12.17;5.73;;;-0.20;99.90;;;;;;4937040;29;20237;-84
2021/01/29 19:30:21;;;;;;;10.00;4.73;;;-0.30;99.90;;;;;;4940868;29;20219;-85
2021/01/29 19:32:48;;;;;;;11.57;5.33;;;-0.50;99.90;;;;;;4943979;29;20215;-84
2021/01/29 19:35:18;;;;;;;10.80;5.20;;;-0.40;99.90;;;;;;4937824;29;20184;-83
2021/01/29 19:37:44;;;;;;;10.43;5.47;;;-0.40;99.90;;;;;;4940975;29;20184;-84